Time;durP1;ratioP1;P1;durP2;ratioP2;P2;SDS_P1;SDS_P2;PMS_P1;PMS_P2;Temp;Humidity;BMP_temperature;BMP_pressure;BME280_temperature;BME280_humidity;BME280_pressure;Samples;Min_cycle;Max_cycle;Signal;HPM_P1;HPM_P2
2022/03/25 00:00:06;;;;;;;69.57;27.63;;;6.90;99.90;;;;;;4978676;28;20046;-88
2022/03/25 00:02:39;;;;;;;61.40;29.13;;;6.90;99.90;;;;;;4996432;28;20038;-87
2022/03/25 00:05:05;;;;;;;68.40;29.92;;;6.90;99.90;;;;;;4995142;28;20034;-88
2022/03/25 00:07:32;;;;;;;64.45;28.25;;;6.90;99.90;;;;;;4962241;28;20045;-87
2022/03/25 00:09:58;;;;;;;67.47;28.27;;;6.80;99.90;;;;;;4963118;28;20097;-88
2022/03/25 00:12:26;;;;;;;67.35;28.77;;;6.80;99.90;;;;;;4995183;28;20470;-88
2022/03/25 00:14:52;;;;;;;62.28;28.65;;;6.70;99.90;;;;;;4962476;28;20030;-88
2022/03/25 00:17:17;;;;;;;63.88;28.33;;;6.70;99.90;;;;;;4962994;28;20042;-88
2022/03/25 00:19:43;;;;;;;67.57;29.95;;;6.70;99.90;;;;;;4994744;28;20026;-88
2022/03/25 00:22:09;;;;;;;68.55;28.50;;;6.90;99.90;;;;;;4995309;28;20038;-87
2022/03/25 00:24:35;;;;;;;63.55;30.35;;;6.80;99.90;;;;;;4995876;28;20061;-87
2022/03/25 00:27:00;;;;;;;64.53;29.73;;;6.70;99.90;;;;;;4994761;28;20033;-87
2022/03/25 00:29:26;;;;;;;64.63;29.55;;;6.80;99.90;;;;;;4962777;28;20076;-88
2022/03/25 00:31:52;;;;;;;69.85;29.13;;;6.80;99.90;;;;;;4979041;28;20465;-88
2022/03/25 00:34:18;;;;;;;76.25;29.58;;;6.70;99.90;;;;;;4978847;28;20181;-88
2022/03/25 00:36:44;;;;;;;70.43;29.75;;;6.60;99.90;;;;;;4994239;28;20034;-88
2022/03/25 00:39:10;;;;;;;66.22;31.35;;;6.60;99.90;;;;;;4978303;28;20473;-88
2022/03/25 00:41:36;;;;;;;65.30;29.42;;;6.50;99.90;;;;;;4962644;28;20745;-88
2022/03/25 00:44:07;;;;;;;67.72;29.30;;;6.50;99.90;;;;;;4962685;28;20038;-87
2022/03/25 00:46:36;;;;;;;63.55;30.25;;;6.40;99.90;;;;;;4962744;28;20030;-87
2022/03/25 00:49:04;;;;;;;58.55;28.42;;;6.30;99.90;;;;;;4962181;28;20030;-88
2022/03/25 00:51:30;;;;;;;74.22;32.13;;;6.10;99.90;;;;;;4978394;28;20022;-87
2022/03/25 00:53:56;;;;;;;68.68;29.23;;;6.00;99.90;;;;;;4961983;28;20543;-88
2022/03/25 00:56:22;;;;;;;67.55;29.90;;;6.10;99.90;;;;;;4962132;28;20169;-87
2022/03/25 00:58:49;;;;;;;66.88;28.05;;;6.00;99.90;;;;;;4961814;28;20038;-88
2022/03/25 01:01:15;;;;;;;64.35;29.63;;;6.00;99.90;;;;;;4977707;28;20065;-87
2022/03/25 01:03:41;;;;;;;71.55;32.00;;;5.90;99.90;;;;;;4961118;28;20034;-87
2022/03/25 01:06:08;;;;;;;65.45;30.35;;;5.90;99.90;;;;;;4993679;28;20030;-87
2022/03/25 01:08:35;;;;;;;66.70;29.13;;;5.80;99.90;;;;;;4960960;28;20033;-87
2022/03/25 01:11:02;;;;;;;67.10;29.92;;;5.70;99.90;;;;;;4961119;28;20041;-87
2022/03/25 01:13:33;;;;;;;68.82;30.73;;;5.70;99.90;;;;;;4961244;28;20034;-87
2022/03/25 01:16:05;;;;;;;68.60;29.73;;;5.60;99.90;;;;;;4961567;28;20538;-88
2022/03/25 01:18:31;;;;;;;65.80;30.58;;;5.60;99.90;;;;;;4961725;28;20035;-88
2022/03/25 01:20:57;;;;;;;70.13;30.30;;;5.60;99.90;;;;;;4961057;28;20046;-87
2022/03/25 01:23:24;;;;;;;63.55;28.02;;;5.50;99.90;;;;;;4993655;28;20497;-87
2022/03/25 01:25:51;;;;;;;66.38;28.60;;;5.50;99.90;;;;;;4962208;28;20037;-88
2022/03/25 01:28:17;;;;;;;72.32;30.67;;;5.50;99.90;;;;;;4977375;28;20030;-87
2022/03/25 01:30:43;;;;;;;65.70;29.67;;;5.40;99.90;;;;;;4961147;28;20030;-87
2022/03/25 01:33:09;;;;;;;76.50;29.20;;;5.40;99.90;;;;;;4961477;28;20092;-88
2022/03/25 01:35:40;;;;;;;70.53;29.88;;;5.40;99.90;;;;;;4961522;28;20036;-87
2022/03/25 01:38:06;;;;;;;76.00;30.45;;;5.50;99.90;;;;;;4960752;28;20416;-87
2022/03/25 01:40:32;;;;;;;66.85;31.40;;;5.60;99.90;;;;;;4961005;28;20034;-87
2022/03/25 01:42:58;;;;;;;74.55;30.60;;;5.70;99.90;;;;;;4960891;28;20038;-87
2022/03/25 01:45:34;;;;;;;64.70;30.42;;;5.70;99.90;;;;;;4960686;28;20631;-87
2022/03/25 01:48:01;;;;;;;68.80;29.83;;;5.70;99.90;;;;;;4976706;28;20030;-86
2022/03/25 01:50:27;;;;;;;80.68;32.05;;;5.60;99.90;;;;;;4961009;28;20034;-87
2022/03/25 01:52:53;;;;;;;71.22;30.23;;;5.50;99.90;;;;;;4960555;28;20478;-88
2022/03/25 01:55:24;;;;;;;63.35;28.60;;;5.50;99.90;;;;;;4960211;28;20045;-88
2022/03/25 01:57:53;;;;;;;69.07;30.27;;;5.60;99.90;;;;;;4960274;28;20030;-88
2022/03/25 02:00:19;;;;;;;63.63;30.20;;;5.70;99.90;;;;;;4960582;28;20030;-88
2022/03/25 02:02:47;;;;;;;67.45;30.23;;;5.60;99.90;;;;;;4977249;28;20049;-87
2022/03/25 02:05:15;;;;;;;67.32;29.85;;;5.60;99.90;;;;;;4960932;28;20026;-88
2022/03/25 02:07:41;;;;;;;69.82;31.30;;;5.60;99.90;;;;;;4960445;28;20070;-87
2022/03/25 02:10:08;;;;;;;62.60;29.92;;;5.60;99.90;;;;;;4993101;28;20849;-87
2022/03/25 02:12:39;;;;;;;71.75;30.52;;;5.60;99.90;;;;;;4960812;28;20053;-87
2022/03/25 02:15:06;;;;;;;63.30;30.35;;;5.60;99.90;;;;;;4960642;28;20112;-87
2022/03/25 02:17:32;;;;;;;69.22;32.25;;;5.60;99.90;;;;;;4960074;28;20081;-87
2022/03/25 02:19:58;;;;;;;69.40;32.30;;;5.70;99.90;;;;;;4960597;28;20034;-88
2022/03/25 02:22:24;;;;;;;69.72;30.98;;;5.70;99.90;;;;;;4992689;28;20097;-87
2022/03/25 02:24:50;;;;;;;72.75;31.98;;;5.70;99.90;;;;;;4960891;28;20547;-87
2022/03/25 02:27:17;;;;;;;72.55;32.22;;;5.60;99.90;;;;;;4960488;28;20053;-87
2022/03/25 02:29:44;;;;;;;69.53;32.10;;;5.60;99.90;;;;;;4976962;28;20154;-87
2022/03/25 02:32:10;;;;;;;65.70;31.15;;;5.50;99.90;;;;;;4976600;28;20130;-87
2022/03/25 02:34:38;;;;;;;66.88;30.98;;;5.50;99.90;;;;;;4959859;28;20038;-87
2022/03/25 02:37:05;;;;;;;65.22;30.13;;;5.50;99.90;;;;;;4993565;28;20057;-87
2022/03/25 02:39:31;;;;;;;62.17;30.42;;;5.40;99.90;;;;;;4960382;28;20031;-87
2022/03/25 02:41:57;;;;;;;64.10;30.23;;;5.30;99.90;;;;;;4976127;28;20037;-87
2022/03/25 02:44:23;;;;;;;65.55;29.65;;;5.50;99.90;;;;;;4960269;28;20445;-87
2022/03/25 02:46:51;;;;;;;62.67;29.45;;;5.60;99.90;;;;;;4992449;28;20134;-87
2022/03/25 02:49:18;;;;;;;73.43;32.13;;;5.60;99.90;;;;;;4992694;28;20065;-87
2022/03/25 02:51:44;;;;;;;75.63;31.02;;;5.70;99.90;;;;;;4960555;28;20096;-88
2022/03/25 02:54:10;;;;;;;73.38;33.17;;;5.70;99.90;;;;;;4960407;28;20117;-87
2022/03/25 02:56:35;;;;;;;66.95;31.17;;;5.50;99.90;;;;;;4959931;28;20038;-87
2022/03/25 02:59:01;;;;;;;61.08;29.25;;;5.30;99.90;;;;;;4959834;28;20038;-87
2022/03/25 03:01:27;;;;;;;62.85;30.15;;;5.20;99.90;;;;;;4959817;28;20034;-87
2022/03/25 03:04:11;;;;;;;86.25;33.17;;;5.10;99.90;;;;;;4992231;28;20077;-87
2022/03/25 03:06:37;;;;;;;63.20;29.83;;;4.90;99.90;;;;;;4960711;28;20041;-87
2022/03/25 03:09:02;;;;;;;62.42;30.70;;;4.70;99.90;;;;;;4960113;28;20034;-87
2022/03/25 03:11:28;;;;;;;70.75;33.17;;;4.50;99.90;;;;;;4960274;28;20118;-88
2022/03/25 03:13:54;;;;;;;66.80;31.10;;;4.50;99.90;;;;;;4960459;28;20066;-88
2022/03/25 03:16:19;;;;;;;70.35;32.90;;;4.40;99.90;;;;;;4960234;28;20125;-86
2022/03/25 03:18:45;;;;;;;67.78;32.38;;;4.30;99.90;;;;;;4992090;28;20038;-87
2022/03/25 03:21:11;;;;;;;63.15;30.13;;;4.10;99.90;;;;;;4976451;28;20046;-87
2022/03/25 03:23:37;;;;;;;67.50;30.92;;;3.90;99.90;;;;;;4975730;28;20038;-87
2022/03/25 03:26:03;;;;;;;71.20;31.05;;;3.90;99.90;;;;;;4959548;28;20804;-87
2022/03/25 03:28:29;;;;;;;65.72;31.17;;;3.80;99.90;;;;;;4992231;28;20035;-87
2022/03/25 03:30:55;;;;;;;73.35;32.35;;;3.80;99.90;;;;;;4992402;28;20038;-87
2022/03/25 03:33:21;;;;;;;73.20;32.78;;;3.70;99.90;;;;;;4959970;28;20034;-87
2022/03/25 03:35:50;;;;;;;71.72;31.27;;;3.60;99.90;;;;;;4959272;28;20045;-86
2022/03/25 03:38:15;;;;;;;67.80;31.83;;;3.50;99.90;;;;;;4991439;28;20053;-87
2022/03/25 03:40:41;;;;;;;74.00;31.60;;;3.50;99.90;;;;;;4959694;28;20731;-87
2022/03/25 03:43:07;;;;;;;68.15;30.35;;;3.50;99.90;;;;;;4959480;28;20034;-87
2022/03/25 03:45:33;;;;;;;68.20;32.60;;;3.40;99.90;;;;;;4959851;28;20461;-87
2022/03/25 03:47:58;;;;;;;74.00;32.08;;;3.30;99.90;;;;;;4979124;28;20026;-87
2022/03/25 03:50:24;;;;;;;70.15;29.63;;;3.10;99.90;;;;;;4996585;28;20069;-87
2022/03/25 03:52:50;;;;;;;67.40;31.77;;;3.00;99.90;;;;;;4995381;28;20474;-87
2022/03/25 03:55:16;;;;;;;58.42;30.02;;;2.90;99.90;;;;;;4963350;28;20073;-87
2022/03/25 03:57:42;;;;;;;73.30;32.78;;;2.80;99.90;;;;;;4979226;28;20030;-87
2022/03/25 04:00:12;;;;;;;68.03;31.95;;;2.70;99.90;;;;;;4962749;28;20037;-87
2022/03/25 04:02:42;;;;;;;73.38;31.75;;;2.70;99.90;;;;;;4979484;28;20049;-87
2022/03/25 04:05:08;;;;;;;71.15;31.80;;;2.70;99.90;;;;;;4962221;28;20506;-87
2022/03/25 04:07:44;;;;;;;67.68;30.83;;;2.60;99.90;;;;;;4995574;28;20034;-87
2022/03/25 04:10:11;;;;;;;70.10;31.83;;;2.50;99.90;;;;;;4962643;28;20062;-87
2022/03/25 04:12:37;;;;;;;72.93;32.20;;;2.30;99.90;;;;;;4978794;28;20393;-87
2022/03/25 04:15:05;;;;;;;68.13;30.85;;;2.30;99.90;;;;;;4962897;28;20031;-87
2022/03/25 04:17:31;;;;;;;83.97;32.97;;;2.30;99.90;;;;;;4962620;28;20034;-87
2022/03/25 04:19:57;;;;;;;82.35;33.90;;;2.40;99.90;;;;;;4962266;28;20033;-87
2022/03/25 04:22:22;;;;;;;71.43;32.20;;;2.40;99.90;;;;;;4962886;28;20026;-87
2022/03/25 04:24:48;;;;;;;68.63;32.25;;;2.50;99.90;;;;;;4962620;28;20045;-87
2022/03/25 04:27:14;;;;;;;77.10;32.80;;;2.40;99.90;;;;;;4994614;28;20030;-87
2022/03/25 04:29:39;;;;;;;75.38;31.88;;;2.30;99.90;;;;;;4978380;28;20069;-87
2022/03/25 04:32:06;;;;;;;69.70;33.35;;;2.30;99.90;;;;;;4962186;28;20042;-87
2022/03/25 04:34:32;;;;;;;78.43;33.10;;;2.30;99.90;;;;;;4977957;28;20087;-87
2022/03/25 04:36:58;;;;;;;81.80;34.60;;;2.30;99.90;;;;;;4977838;28;20030;-87
2022/03/25 04:39:24;;;;;;;73.75;33.80;;;2.50;99.90;;;;;;4978246;28;20826;-87
2022/03/25 04:41:49;;;;;;;78.93;33.97;;;2.60;99.90;;;;;;4978198;28;20034;-87
2022/03/25 04:44:15;;;;;;;75.18;34.25;;;2.70;99.90;;;;;;4961758;28;20125;-87
2022/03/25 04:46:41;;;;;;;91.28;37.90;;;2.70;99.90;;;;;;4978404;28;20121;-87
2022/03/25 04:49:08;;;;;;;82.18;34.53;;;2.80;99.90;;;;;;4961968;28;20030;-87
2022/03/25 04:51:34;;;;;;;77.38;36.40;;;2.90;99.90;;;;;;4994230;28;20038;-87
2022/03/25 04:54:00;;;;;;;77.30;34.30;;;3.10;99.90;;;;;;4978377;28;20034;-87
2022/03/25 04:56:26;;;;;;;77.38;34.83;;;3.20;99.90;;;;;;4961822;28;20501;-86
2022/03/25 04:58:52;;;;;;;79.38;36.15;;;3.30;99.90;;;;;;4961220;28;20038;-87
2022/03/25 05:01:17;;;;;;;79.82;36.78;;;3.20;99.90;;;;;;4961986;28;20038;-87
2022/03/25 05:03:45;;;;;;;77.10;35.85;;;3.20;99.90;;;;;;4962198;28;20030;-87
2022/03/25 05:06:12;;;;;;;82.63;36.97;;;3.10;99.90;;;;;;4994510;28;20034;-87
2022/03/25 05:08:38;;;;;;;80.03;35.63;;;3.00;99.90;;;;;;4961875;28;20113;-86
2022/03/25 05:11:04;;;;;;;80.13;35.70;;;3.00;99.90;;;;;;4961795;28;20566;-87
2022/03/25 05:13:30;;;;;;;83.68;34.72;;;3.00;99.90;;;;;;4994495;28;20046;-87
2022/03/25 05:15:55;;;;;;;80.63;33.92;;;2.90;99.90;;;;;;4961652;28;20038;-87
2022/03/25 05:18:25;;;;;;;79.65;34.65;;;2.90;99.90;;;;;;4993691;28;20091;-87
2022/03/25 05:20:51;;;;;;;74.75;34.08;;;2.90;99.90;;;;;;4993494;28;20084;-83
2022/03/25 05:23:17;;;;;;;73.43;34.13;;;2.80;99.90;;;;;;4960192;28;20030;-83
2022/03/25 05:25:43;;;;;;;72.22;34.05;;;2.80;99.90;;;;;;4993067;28;20037;-83
2022/03/25 05:28:09;;;;;;;76.28;35.85;;;2.80;99.90;;;;;;4992859;28;20026;-84
2022/03/25 05:30:35;;;;;;;82.47;34.38;;;2.80;99.90;;;;;;4960612;28;20061;-83
2022/03/25 05:33:01;;;;;;;79.15;34.58;;;2.90;99.90;;;;;;4977180;28;20493;-83
2022/03/25 05:35:28;;;;;;;75.90;33.60;;;2.80;99.90;;;;;;4960590;28;20486;-83
2022/03/25 05:37:55;;;;;;;75.00;33.47;;;2.80;99.90;;;;;;4976731;28;20034;-83
2022/03/25 05:40:22;;;;;;;79.40;35.90;;;2.80;99.90;;;;;;4960704;28;20493;-83
2022/03/25 05:42:49;;;;;;;77.28;35.88;;;2.60;99.90;;;;;;4976549;28;20034;-83
2022/03/25 05:45:18;;;;;;;82.18;35.97;;;2.50;99.90;;;;;;4960522;28;20022;-83
2022/03/25 05:47:43;;;;;;;81.38;36.15;;;2.50;99.90;;;;;;4960288;28;20503;-83
2022/03/25 05:50:11;;;;;;;79.55;36.92;;;2.60;99.90;;;;;;4960180;28;20061;-83
2022/03/25 05:52:37;;;;;;;77.40;36.03;;;2.70;99.90;;;;;;4960620;28;20062;-83
2022/03/25 05:55:06;;;;;;;89.60;36.38;;;2.80;99.90;;;;;;4960661;28;20682;-83
2022/03/25 05:57:32;;;;;;;81.95;36.40;;;3.10;99.90;;;;;;4960111;28;20046;-83
2022/03/25 05:59:59;;;;;;;85.50;37.08;;;3.20;99.90;;;;;;4960388;28;20125;-83
2022/03/25 06:02:26;;;;;;;77.80;37.25;;;3.30;99.90;;;;;;4976542;28;20037;-83
2022/03/25 06:04:52;;;;;;;79.60;38.20;;;3.20;99.90;;;;;;4992089;28;20532;-83
2022/03/25 06:07:18;;;;;;;88.15;38.17;;;3.20;99.90;;;;;;4992165;28;20038;-83
2022/03/25 06:09:44;;;;;;;77.40;36.25;;;3.20;99.90;;;;;;4959786;28;20030;-83
2022/03/25 06:12:11;;;;;;;82.07;37.30;;;3.20;99.90;;;;;;4976318;28;20080;-83
2022/03/25 06:14:38;;;;;;;73.35;34.47;;;3.20;99.90;;;;;;4975795;28;20049;-83
2022/03/25 06:17:05;;;;;;;79.82;38.08;;;3.20;99.90;;;;;;4959866;28;20035;-83
2022/03/25 06:19:31;;;;;;;85.82;39.15;;;3.30;99.90;;;;;;4960034;28;20132;-83
2022/03/25 06:21:58;;;;;;;84.07;39.13;;;3.40;99.90;;;;;;4992195;28;20712;-83
2022/03/25 06:24:24;;;;;;;88.40;38.95;;;3.50;99.90;;;;;;4993489;28;20049;-83
2022/03/25 06:26:52;;;;;;;83.50;37.17;;;3.60;99.90;;;;;;4961252;28;20070;-84
2022/03/25 06:29:18;;;;;;;76.00;35.40;;;3.80;99.90;;;;;;4959751;28;20437;-83
2022/03/25 06:31:44;;;;;;;84.72;38.58;;;4.00;99.90;;;;;;4961436;28;20038;-83
2022/03/25 06:34:10;;;;;;;84.70;38.80;;;4.20;99.90;;;;;;4960060;28;20064;-83
2022/03/25 06:36:36;;;;;;;83.60;38.03;;;4.30;99.90;;;;;;4960211;28;20037;-83
2022/03/25 06:39:02;;;;;;;76.72;38.28;;;4.60;99.90;;;;;;4975694;28;20528;-84
2022/03/25 06:41:28;;;;;;;74.65;36.20;;;4.80;99.90;;;;;;4961680;28;20061;-84
2022/03/25 06:43:54;;;;;;;84.20;37.80;;;5.20;99.90;;;;;;4991904;28;20042;-84
2022/03/25 06:46:20;;;;;;;87.05;38.92;;;5.40;99.90;;;;;;4959355;28;20374;-83
2022/03/25 06:48:46;;;;;;;79.45;37.30;;;5.60;99.90;;;;;;4974762;28;20034;-84
2022/03/25 06:51:12;;;;;;;79.10;37.08;;;5.70;99.90;;;;;;4959278;28;20036;-83
2022/03/25 06:53:39;;;;;;;82.28;37.58;;;5.90;99.90;;;;;;4991180;28;20464;-84
2022/03/25 06:56:05;;;;;;;88.97;38.08;;;6.00;99.90;;;;;;4960765;28;20441;-83
2022/03/25 06:58:31;;;;;;;80.22;37.65;;;6.20;99.90;;;;;;4990601;28;20042;-84
2022/03/25 07:00:57;;;;;;;80.50;37.67;;;6.40;99.90;;;;;;4991095;28;20045;-83
2022/03/25 07:04:03;;;;;;;76.15;38.30;;;6.60;99.90;;;;;;4991229;28;20045;-83
2022/03/25 07:06:31;;;;;;;75.68;36.78;;;6.90;99.90;;;;;;4958906;28;20026;-83
2022/03/25 07:08:57;;;;;;;80.70;38.05;;;7.20;99.90;;;;;;4960902;28;20042;-84
2022/03/25 07:11:24;;;;;;;86.88;39.42;;;7.50;99.90;;;;;;4990748;28;20042;-83
2022/03/25 07:13:51;;;;;;;79.85;37.88;;;7.70;99.90;;;;;;4974963;28;20039;-84
2022/03/25 07:16:20;;;;;;;74.72;36.92;;;7.80;99.90;;;;;;4958787;28;20031;-84
2022/03/25 07:18:46;;;;;;;72.63;36.88;;;8.10;99.90;;;;;;4990880;28;20825;-84
2022/03/25 07:21:12;;;;;;;81.05;37.20;;;8.30;99.90;;;;;;4977061;28;20019;-83
2022/03/25 07:23:39;;;;;;;71.15;36.83;;;8.40;99.90;;;;;;4962842;28;20648;-84
2022/03/25 07:26:05;;;;;;;75.88;37.30;;;8.60;99.90;;;;;;4965181;28;20597;-83
2022/03/25 07:28:31;;;;;;;72.78;35.72;;;8.70;99.90;;;;;;4962635;28;20081;-83
2022/03/25 07:30:57;;;;;;;78.00;38.95;;;8.80;99.90;;;;;;4966838;28;20760;-83
2022/03/25 07:33:26;;;;;;;74.68;38.90;;;9.00;99.90;;;;;;4963373;28;20034;-84
2022/03/25 07:35:52;;;;;;;73.85;36.65;;;9.10;99.90;;;;;;4963307;28;20525;-84
2022/03/25 07:38:17;;;;;;;73.30;37.88;;;9.20;99.90;;;;;;4962509;28;20113;-84
2022/03/25 07:40:44;;;;;;;70.03;36.17;;;9.30;99.90;;;;;;4962238;28;20026;-84
2022/03/25 07:43:10;;;;;;;70.97;35.50;;;9.40;99.90;;;;;;4994747;28;20042;-83
2022/03/25 07:45:37;;;;;;;76.28;36.53;;;9.50;99.90;;;;;;4963373;28;20104;-84
2022/03/25 07:48:02;;;;;;;75.72;36.78;;;9.60;99.90;;;;;;4979034;28;20054;-84
2022/03/25 07:50:31;;;;;;;77.03;38.50;;;9.70;99.90;;;;;;4963064;28;20026;-84
2022/03/25 07:52:56;;;;;;;75.20;37.75;;;9.80;99.90;;;;;;4962900;28;20821;-84
2022/03/25 07:55:23;;;;;;;73.05;36.25;;;10.00;99.90;;;;;;4963044;28;20121;-84
2022/03/25 07:57:49;;;;;;;70.88;35.65;;;10.10;99.90;;;;;;4962153;28;20069;-84
2022/03/25 08:00:15;;;;;;;73.95;37.08;;;10.20;99.90;;;;;;4963012;28;20553;-84
2022/03/25 08:02:43;;;;;;;68.38;36.42;;;10.30;99.90;;;;;;4962076;28;20069;-84
2022/03/25 08:05:10;;;;;;;77.30;36.03;;;10.40;99.90;;;;;;4962400;28;20389;-85
2022/03/25 08:07:49;;;;;;;67.03;35.65;;;10.40;99.90;;;;;;4962223;28;20041;-78
2022/03/25 08:10:21;;;;;;;70.60;35.50;;;10.50;99.70;;;;;;4961710;28;20419;-79
2022/03/25 08:12:47;;;;;;;74.00;36.53;;;10.50;99.60;;;;;;4978204;28;20049;-84
2022/03/25 08:15:13;;;;;;;75.20;36.40;;;10.50;99.90;;;;;;4962475;28;20038;-83
2022/03/25 08:17:49;;;;;;;70.05;35.78;;;10.60;99.90;;;;;;4961963;28;20367;-82
2022/03/25 08:20:41;;;;;;;75.93;36.72;;;10.70;98.90;;;;;;4979437;28;20549;-84
2022/03/25 08:27:48;;;;;;;74.85;36.75;;;10.80;98.40;;;;;;4962056;28;20034;-82
2022/03/25 08:28:47;;;;;;;70.13;37.00;;;10.80;98.90;;;;;;4977752;28;20026;-83
2022/03/25 08:31:13;;;;;;;68.70;37.90;;;10.90;98.20;;;;;;4962147;28;20137;-84
2022/03/25 08:33:39;;;;;;;71.30;36.60;;;11.00;97.30;;;;;;4960870;28;20478;-86
2022/03/25 08:36:04;;;;;;;69.97;35.33;;;11.10;97.00;;;;;;4961931;28;20053;-87
2022/03/25 08:38:30;;;;;;;71.47;35.63;;;11.20;96.40;;;;;;4961693;28;20041;-85
2022/03/25 08:40:56;;;;;;;73.20;35.95;;;11.20;96.40;;;;;;4994292;28;20034;-85
2022/03/25 08:43:22;;;;;;;79.60;36.33;;;11.40;96.80;;;;;;4961860;28;20516;-84
2022/03/25 08:45:47;;;;;;;77.70;36.22;;;11.50;96.30;;;;;;4961428;28;20034;-85
2022/03/25 08:48:13;;;;;;;72.53;35.80;;;11.70;95.00;;;;;;4993281;28;20394;-84
2022/03/25 08:50:39;;;;;;;69.20;37.17;;;12.60;94.30;;;;;;4977473;28;20165;-83
2022/03/25 08:53:05;;;;;;;63.85;35.95;;;14.20;90.80;;;;;;4961623;28;20113;-89
2022/03/25 08:55:31;;;;;;;63.03;36.03;;;15.30;85.30;;;;;;4993262;28;20066;-79
2022/03/25 08:57:57;;;;;;;60.60;35.53;;;16.40;77.70;;;;;;4993492;28;20034;-79
2022/03/25 09:00:23;;;;;;;63.97;36.65;;;17.30;70.60;;;;;;4994606;28;20038;-79
2022/03/25 09:02:49;;;;;;;64.82;35.38;;;18.00;66.10;;;;;;4994621;28;20030;-79
2022/03/25 09:05:16;;;;;;;60.47;35.80;;;18.90;62.80;;;;;;4994771;28;20027;-79
2022/03/25 09:07:43;;;;;;;64.18;37.00;;;19.20;59.70;;;;;;4960908;28;20041;-79
2022/03/25 09:10:11;;;;;;;61.38;36.53;;;19.30;58.10;;;;;;4994719;28;20034;-79
2022/03/25 09:12:37;;;;;;;61.85;37.08;;;20.10;56.20;;;;;;4993321;28;20033;-80
2022/03/25 09:15:05;;;;;;;59.53;36.63;;;20.30;53.90;;;;;;4993078;28;20181;-81
2022/03/25 09:17:49;;;;;;;63.53;35.95;;;20.50;52.90;;;;;;4994058;28;20030;-84
2022/03/25 09:20:15;;;;;;;68.35;40.58;;;19.90;52.70;;;;;;4960220;28;20038;-85
2022/03/25 09:22:42;;;;;;;63.83;37.85;;;19.70;52.50;;;;;;4976468;28;20034;-84
2022/03/25 09:25:08;;;;;;;61.00;37.20;;;19.10;54.30;;;;;;4993982;28;20066;-84
2022/03/25 09:27:35;;;;;;;66.97;36.28;;;18.90;54.70;;;;;;4975606;28;20022;-84
2022/03/25 09:30:03;;;;;;;60.65;34.72;;;17.90;54.90;;;;;;4960051;28;20042;-85
2022/03/25 09:32:29;;;;;;;59.90;36.15;;;18.00;56.60;;;;;;4975583;28;20042;-85
2022/03/25 09:35:10;;;;;;;64.05;37.65;;;18.10;56.70;;;;;;4959686;28;20031;-84
2022/03/25 09:37:38;;;;;;;60.35;35.17;;;17.60;56.70;;;;;;4976104;28;20050;-84
2022/03/25 09:40:07;;;;;;;61.25;36.83;;;17.30;58.40;;;;;;4962598;28;20031;-84
2022/03/25 09:42:33;;;;;;;60.95;36.83;;;17.10;58.50;;;;;;4960254;28;20035;-84
2022/03/25 09:45:01;;;;;;;60.72;35.70;;;17.50;58.30;;;;;;4960006;28;20034;-84
2022/03/25 09:47:27;;;;;;;60.55;35.20;;;18.00;57.60;;;;;;4976611;28;20490;-85
2022/03/25 09:49:53;;;;;;;56.08;33.38;;;18.70;57.10;;;;;;4993006;28;20744;-84
2022/03/25 09:52:19;;;;;;;64.80;37.30;;;19.30;56.50;;;;;;4960336;28;20030;-84
2022/03/25 09:54:45;;;;;;;60.70;37.00;;;19.50;55.20;;;;;;4959823;28;20438;-84
2022/03/25 09:57:11;;;;;;;70.43;37.15;;;19.70;53.40;;;;;;4959617;28;20070;-84
2022/03/25 09:59:36;;;;;;;66.28;39.03;;;20.40;53.20;;;;;;4992577;28;20125;-84
2022/03/25 10:02:03;;;;;;;64.35;39.08;;;20.90;51.80;;;;;;4992401;28;20088;-84
2022/03/25 10:04:42;;;;;;;57.28;37.40;;;20.50;51.20;;;;;;4959526;28;20129;-85
2022/03/25 10:07:20;;;;;;;57.28;36.10;;;20.70;51.80;;;;;;4975370;28;20149;-84
2022/03/25 10:09:48;;;;;;;53.17;36.72;;;21.10;50.90;;;;;;4959955;28;20108;-84
2022/03/25 10:12:27;;;;;;;62.13;37.70;;;20.20;50.10;;;;;;4975822;28;20036;-84
2022/03/25 10:15:14;;;;;;;62.33;36.88;;;19.40;52.70;;;;;;4959861;28;20617;-84
2022/03/25 10:17:54;;;;;;;56.38;35.90;;;18.60;52.40;;;;;;4959208;28;20041;-85
2022/03/25 10:20:29;;;;;;;64.00;35.72;;;18.40;54.00;;;;;;4959689;28;20037;-84
2022/03/25 10:22:57;;;;;;;56.88;36.92;;;18.80;53.50;;;;;;4959020;28;20035;-84
2022/03/25 10:25:40;;;;;;;56.88;35.95;;;19.50;52.50;;;;;;4959026;28;20138;-84
2022/03/25 10:28:30;;;;;;;59.95;36.55;;;20.10;50.60;;;;;;4960945;28;20042;-85
2022/03/25 10:30:58;;;;;;;58.05;35.97;;;20.30;49.30;;;;;;4993140;28;20042;-84
2022/03/25 10:33:36;;;;;;;60.50;38.03;;;19.80;50.30;;;;;;4992703;28;20023;-85
2022/03/25 10:36:08;;;;;;;57.70;35.70;;;19.60;50.70;;;;;;4991933;28;20882;-84
2022/03/25 10:38:46;;;;;;;57.45;35.22;;;19.30;50.60;;;;;;4959033;28;20037;-84
2022/03/25 10:41:20;;;;;;;56.40;36.22;;;19.50;50.60;;;;;;4991294;28;20474;-85
2022/03/25 10:44:03;;;;;;;58.80;37.33;;;19.30;50.80;;;;;;4975167;28;20050;-84
2022/03/25 10:46:34;;;;;;;56.15;35.70;;;18.80;51.80;;;;;;4959897;28;20583;-84
2022/03/25 10:49:04;;;;;;;60.30;34.85;;;18.60;52.20;;;;;;4990954;28;20092;-84
2022/03/25 10:51:37;;;;;;;63.28;36.25;;;19.00;51.80;;;;;;4959837;28;20035;-84
2022/03/25 10:54:08;;;;;;;62.22;36.40;;;19.20;50.70;;;;;;4959500;28;20490;-84
2022/03/25 10:56:52;;;;;;;56.28;35.65;;;18.90;50.50;;;;;;4961799;28;20121;-84
2022/03/25 10:59:26;;;;;;;54.92;33.95;;;18.80;51.80;;;;;;4995266;28;20052;-84
2022/03/25 11:01:55;;;;;;;51.90;34.58;;;18.70;51.90;;;;;;4963731;28;20019;-84
2022/03/25 11:04:21;;;;;;;58.35;36.58;;;18.80;51.60;;;;;;4963130;28;20026;-84
2022/03/25 11:06:47;;;;;;;63.08;36.78;;;19.00;50.70;;;;;;4981041;28;20478;-83
2022/03/25 11:09:14;;;;;;;57.10;35.75;;;19.30;50.80;;;;;;4996901;28;20117;-84
2022/03/25 11:11:45;;;;;;;59.78;36.15;;;19.30;49.60;;;;;;4979325;28;20442;-84
2022/03/25 11:14:11;;;;;;;70.90;36.58;;;18.90;50.50;;;;;;4963024;28;20125;-84
2022/03/25 11:16:43;;;;;;;60.05;35.10;;;19.10;50.20;;;;;;4962423;28;20034;-84
2022/03/25 11:19:10;;;;;;;55.25;35.47;;;19.30;50.50;;;;;;4963005;28;20761;-85
2022/03/25 11:21:45;;;;;;;55.25;35.67;;;19.70;50.70;;;;;;4995316;28;20059;-84
2022/03/25 11:25:02;;;;;;;55.75;35.92;;;20.00;50.30;;;;;;4979065;28;20097;-84
2022/03/25 11:27:31;;;;;;;61.83;35.50;;;19.70;48.90;;;;;;4962439;28;20046;-84
2022/03/25 11:30:14;;;;;;;58.10;35.47;;;19.40;49.40;;;;;;4962347;28;20035;-85
2022/03/25 11:33:05;;;;;;;60.88;36.13;;;19.20;49.30;;;;;;4962740;28;20034;-85
2022/03/25 11:35:41;;;;;;;56.22;33.92;;;19.20;48.50;;;;;;4962277;28;20457;-84
2022/03/25 11:38:20;;;;;;;56.55;34.30;;;19.10;49.60;;;;;;4961903;28;20478;-84
2022/03/25 11:40:48;;;;;;;53.35;33.90;;;18.80;50.00;;;;;;4994880;28;20095;-84
2022/03/25 11:43:22;;;;;;;53.78;33.05;;;18.80;50.00;;;;;;4978629;28;20029;-84
2022/03/25 11:46:00;;;;;;;53.55;32.58;;;19.50;49.60;;;;;;4996245;28;20034;-84
2022/03/25 11:48:26;;;;;;;60.42;36.38;;;19.60;48.30;;;;;;4964257;28;20073;-84
2022/03/25 11:50:55;;;;;;;54.28;34.33;;;19.20;48.90;;;;;;4961609;28;20046;-84
2022/03/25 11:53:23;;;;;;;53.80;33.55;;;19.20;49.80;;;;;;4962231;28;20128;-84
2022/03/25 11:56:06;;;;;;;54.47;33.38;;;19.90;50.50;;;;;;4977946;28;20030;-84
2022/03/25 11:58:37;;;;;;;56.67;34.45;;;20.40;47.50;;;;;;4962083;28;20034;-84
2022/03/25 12:01:13;;;;;;;55.53;33.40;;;20.00;48.60;;;;;;4977997;28;20057;-85
2022/03/25 12:03:41;;;;;;;52.10;32.65;;;20.20;48.40;;;;;;4994622;28;20037;-84
2022/03/25 12:06:07;;;;;;;63.35;37.10;;;20.90;48.60;;;;;;4962164;28;20062;-84
2022/03/25 12:08:35;;;;;;;59.00;34.42;;;21.20;47.80;;;;;;4976509;28;20035;-84
2022/03/25 12:11:05;;;;;;;60.60;36.53;;;20.90;46.70;;;;;;4994592;28;20034;-84
2022/03/25 12:13:56;;;;;;;56.45;35.65;;;20.50;47.10;;;;;;4962133;28;20030;-85
2022/03/25 12:16:51;;;;;;;62.67;36.78;;;20.30;48.20;;;;;;4962573;28;20042;-84
2022/03/25 12:19:26;;;;;;;64.82;38.40;;;20.20;48.20;;;;;;4962370;28;20381;-84
2022/03/25 12:22:03;;;;;;;63.38;36.10;;;20.90;47.40;;;;;;4978142;28;20109;-84
2022/03/25 12:24:38;;;;;;;63.28;36.53;;;20.50;47.30;;;;;;4994395;28;20497;-84
2022/03/25 12:27:06;;;;;;;60.17;35.70;;;20.30;48.50;;;;;;4993712;28;20038;-84
2022/03/25 12:29:33;;;;;;;61.92;36.10;;;20.00;47.80;;;;;;4993946;28;20018;-84
2022/03/25 12:32:07;;;;;;;59.90;35.72;;;20.20;47.70;;;;;;4961826;28;20049;-84
2022/03/25 12:34:49;;;;;;;62.67;37.47;;;20.30;47.80;;;;;;4994116;28;20034;-84
2022/03/25 12:37:24;;;;;;;57.80;37.22;;;19.80;47.40;;;;;;4961309;28;20034;-84
2022/03/25 12:39:52;;;;;;;54.90;34.03;;;19.70;47.90;;;;;;4995108;28;20394;-85
2022/03/25 12:42:17;;;;;;;55.80;34.58;;;19.40;48.50;;;;;;4961592;28;20037;-84